Time;durP1;ratioP1;P1;durP2;ratioP2;P2;SDS_P1;SDS_P2;PMS_P1;PMS_P2;Temp;Humidity;BMP_temperature;BMP_pressure;BME280_temperature;BME280_humidity;BME280_pressure;Samples;Min_cycle;Max_cycle;Signal;HPM_P1;HPM_P2
2023/06/18 00:02:24;;;;;;;31.85;21.67;;;15.10;99.90;;;;;;5094425;28;20048;-79
2023/06/18 00:04:50;;;;;;;31.35;21.27;;;15.10;99.90;;;;;;5095320;28;20032;-79
2023/06/18 00:07:16;;;;;;;31.05;21.20;;;15.10;99.90;;;;;;5093868;28;20526;-79
2023/06/18 00:09:41;;;;;;;33.88;22.50;;;15.00;99.90;;;;;;5093839;28;20123;-79
2023/06/18 00:12:08;;;;;;;34.63;23.20;;;15.00;99.90;;;;;;5093883;28;20193;-79
2023/06/18 00:14:33;;;;;;;34.42;23.13;;;15.10;99.90;;;;;;5094158;28;20043;-79
2023/06/18 00:16:59;;;;;;;34.50;23.67;;;15.00;99.90;;;;;;5093879;28;20052;-79
2023/06/18 00:19:25;;;;;;;34.28;22.60;;;15.00;99.90;;;;;;5095106;28;20174;-79
2023/06/18 00:21:51;;;;;;;36.05;25.15;;;15.00;99.90;;;;;;5093820;28;20038;-79
2023/06/18 00:24:17;;;;;;;42.05;26.52;;;14.90;99.90;;;;;;5093508;28;20056;-79
2023/06/18 00:26:43;;;;;;;40.88;25.95;;;14.90;99.90;;;;;;5093564;28;20052;-79
2023/06/18 00:29:09;;;;;;;43.17;27.00;;;14.90;99.90;;;;;;5093252;28;20052;-79
2023/06/18 00:31:34;;;;;;;43.72;27.48;;;15.00;99.90;;;;;;5093766;28;20118;-79
2023/06/18 00:34:05;;;;;;;48.90;28.10;;;15.00;99.90;;;;;;5093890;28;20082;-79
2023/06/18 00:36:31;;;;;;;44.42;27.92;;;14.90;99.90;;;;;;5093703;28;20407;-79
2023/06/18 00:38:57;;;;;;;43.42;26.98;;;14.90;99.90;;;;;;5094654;28;20048;-79
2023/06/18 00:41:27;;;;;;;46.10;27.38;;;14.90;99.90;;;;;;5094764;28;20040;-79
2023/06/18 00:43:53;;;;;;;51.38;28.40;;;15.00;99.90;;;;;;5093223;28;20476;-79
2023/06/18 00:46:20;;;;;;;45.22;28.48;;;14.90;99.90;;;;;;5093664;28;20055;-79
2023/06/18 00:48:47;;;;;;;49.45;28.23;;;15.00;99.90;;;;;;5093220;28;20403;-79
2023/06/18 00:51:13;;;;;;;42.13;26.77;;;14.90;99.90;;;;;;5093432;28;20044;-79
2023/06/18 00:53:38;;;;;;;46.40;27.48;;;14.90;99.90;;;;;;5093394;28;20498;-79
2023/06/18 00:56:04;;;;;;;44.03;27.73;;;14.80;99.90;;;;;;5094464;28;20036;-79
2023/06/18 00:58:31;;;;;;;44.45;26.52;;;14.80;99.90;;;;;;5092924;28;20047;-79
2023/06/18 01:00:57;;;;;;;43.20;27.58;;;14.70;99.90;;;;;;5093150;28;20048;-79
2023/06/18 01:03:25;;;;;;;46.25;27.83;;;14.70;99.90;;;;;;5093352;28;20067;-79
2023/06/18 01:06:01;;;;;;;51.13;30.15;;;14.70;99.90;;;;;;5093177;28;20416;-79
2023/06/18 01:08:28;;;;;;;51.65;30.05;;;14.70;99.90;;;;;;5093232;28;20461;-79
2023/06/18 01:11:01;;;;;;;50.80;29.85;;;14.70;99.90;;;;;;5092672;28;20399;-79
2023/06/18 01:13:30;;;;;;;47.13;29.10;;;14.70;99.90;;;;;;5092943;28;20124;-79
2023/06/18 01:16:07;;;;;;;48.00;28.05;;;14.60;99.90;;;;;;5092869;28;20519;-79
2023/06/18 01:18:36;;;;;;;52.35;31.63;;;14.70;99.90;;;;;;5093973;28;20514;-79
2023/06/18 01:21:09;;;;;;;47.15;28.60;;;14.70;99.90;;;;;;5092744;28;20048;-79
2023/06/18 01:23:49;;;;;;;49.65;29.67;;;14.70;99.90;;;;;;5092544;28;20511;-79
2023/06/18 01:26:20;;;;;;;48.95;28.65;;;14.60;99.90;;;;;;5092656;28;20566;-79
2023/06/18 01:28:53;;;;;;;47.53;28.67;;;14.60;99.90;;;;;;5092827;28;20067;-79
2023/06/18 01:31:21;;;;;;;50.15;28.92;;;14.70;99.90;;;;;;5092703;28;20134;-79
2023/06/18 01:33:51;;;;;;;50.38;29.83;;;14.60;99.90;;;;;;5092622;28;20051;-79
2023/06/18 01:36:35;;;;;;;54.13;30.60;;;14.70;99.90;;;;;;5093883;28;20040;-79
2023/06/18 01:39:44;;;;;;;48.22;28.65;;;14.70;99.90;;;;;;5092657;28;20050;-79
2023/06/18 01:42:16;;;;;;;48.85;28.83;;;14.60;99.90;;;;;;5091630;28;20121;-79
2023/06/18 01:44:50;;;;;;;49.25;28.45;;;14.50;99.90;;;;;;5092863;28;20100;-79
2023/06/18 01:47:17;;;;;;;49.30;28.80;;;14.50;99.90;;;;;;5093546;28;20058;-79
2023/06/18 01:49:45;;;;;;;47.42;28.80;;;14.50;99.90;;;;;;5092327;28;20130;-79
2023/06/18 01:52:16;;;;;;;47.72;28.08;;;14.40;99.90;;;;;;5093513;28;20361;-79
2023/06/18 01:54:46;;;;;;;53.28;28.92;;;14.40;99.90;;;;;;5093783;28;20046;-79
2023/06/18 01:57:16;;;;;;;50.95;28.80;;;14.50;99.90;;;;;;5092495;28;20097;-79
2023/06/18 01:59:45;;;;;;;50.53;28.95;;;14.50;99.90;;;;;;5092332;28;20044;-79
2023/06/18 02:02:12;;;;;;;53.70;29.80;;;14.40;99.90;;;;;;5092461;28;20059;-79
2023/06/18 02:04:43;;;;;;;53.75;28.27;;;14.40;99.90;;;;;;5093626;28;20042;-79
2023/06/18 02:07:12;;;;;;;53.15;29.73;;;14.40;99.90;;;;;;5092554;28;20054;-79
2023/06/18 02:09:37;;;;;;;50.50;28.17;;;14.40;99.90;;;;;;5093483;28;20047;-79
2023/06/18 02:12:03;;;;;;;50.95;29.30;;;14.40;99.90;;;;;;5093679;28;20048;-79
2023/06/18 02:14:30;;;;;;;50.75;29.88;;;14.30;99.90;;;;;;5096355;28;20087;-79
2023/06/18 02:16:56;;;;;;;51.75;29.42;;;14.30;99.90;;;;;;5096124;28;20055;-79
2023/06/18 02:19:22;;;;;;;50.15;29.40;;;14.30;99.90;;;;;;5096027;28;20462;-78
2023/06/18 02:21:47;;;;;;;49.30;29.45;;;14.30;99.90;;;;;;5096390;28;20543;-79
2023/06/18 02:24:15;;;;;;;52.25;28.73;;;14.30;99.90;;;;;;5095927;28;20132;-79
2023/06/18 02:26:42;;;;;;;45.78;26.83;;;14.30;99.90;;;;;;5097270;28;20066;-79
2023/06/18 02:29:07;;;;;;;49.25;26.80;;;14.20;99.90;;;;;;5096069;28;20044;-79
2023/06/18 02:31:33;;;;;;;50.10;28.15;;;14.20;99.90;;;;;;5095928;28;20392;-79
2023/06/18 02:33:59;;;;;;;47.90;27.63;;;14.20;99.90;;;;;;5097267;28;20415;-78
2023/06/18 02:36:24;;;;;;;47.55;26.90;;;14.20;99.90;;;;;;5097142;28;20105;-79
2023/06/18 02:38:52;;;;;;;45.47;26.77;;;14.10;99.90;;;;;;5097155;28;20093;-78
2023/06/18 02:41:19;;;;;;;46.33;27.45;;;14.10;99.90;;;;;;5096089;28;20047;-78
2023/06/18 02:43:49;;;;;;;50.75;28.10;;;14.10;99.90;;;;;;5096704;28;20050;-78
2023/06/18 02:46:16;;;;;;;45.20;27.15;;;14.10;99.90;;;;;;5095935;28;20112;-79
2023/06/18 02:48:42;;;;;;;48.55;27.30;;;14.10;99.90;;;;;;5095552;28;20109;-78
2023/06/18 02:51:07;;;;;;;50.90;29.45;;;14.10;99.90;;;;;;5095803;28;20139;-78
2023/06/18 02:53:33;;;;;;;48.95;28.23;;;14.10;99.90;;;;;;5095567;28;20044;-79
2023/06/18 02:56:01;;;;;;;46.90;27.35;;;14.10;99.90;;;;;;5095690;28;20135;-78
2023/06/18 02:58:29;;;;;;;48.10;27.55;;;14.00;99.90;;;;;;5095337;28;20051;-79
2023/06/18 03:00:59;;;;;;;47.58;26.52;;;14.00;99.90;;;;;;5095100;28;20075;-79
2023/06/18 03:03:26;;;;;;;42.85;25.88;;;13.90;99.90;;;;;;5094454;28;20052;-79
2023/06/18 03:05:52;;;;;;;46.55;25.95;;;13.90;99.90;;;;;;5093214;28;20040;-79
2023/06/18 03:08:19;;;;;;;42.38;24.58;;;13.90;99.90;;;;;;5094375;28;20091;-78
2023/06/18 03:10:45;;;;;;;49.22;26.88;;;13.90;99.90;;;;;;5094907;28;20499;-79
2023/06/18 03:13:10;;;;;;;51.30;27.02;;;13.90;99.90;;;;;;5096494;28;20052;-79
2023/06/18 03:15:36;;;;;;;53.63;28.42;;;13.90;99.90;;;;;;5096371;28;20044;-79
2023/06/18 03:18:02;;;;;;;60.25;26.23;;;13.90;99.90;;;;;;5094780;28;20131;-79
2023/06/18 03:20:28;;;;;;;46.70;24.38;;;13.90;99.90;;;;;;5094825;28;20553;-79
2023/06/18 03:22:54;;;;;;;53.05;25.40;;;13.90;99.90;;;;;;5093969;28;20063;-79
2023/06/18 03:25:21;;;;;;;41.47;22.83;;;14.00;99.90;;;;;;5094428;28;20052;-79
2023/06/18 03:27:48;;;;;;;42.30;23.17;;;13.90;99.90;;;;;;5094629;28;20052;-79
2023/06/18 03:30:14;;;;;;;40.45;22.70;;;13.90;99.90;;;;;;5094569;28;20044;-79
2023/06/18 03:32:40;;;;;;;43.83;23.52;;;13.90;99.90;;;;;;5094555;28;20040;-79
2023/06/18 03:35:06;;;;;;;38.38;21.92;;;13.80;99.90;;;;;;5094569;28;20131;-79
2023/06/18 03:37:32;;;;;;;31.48;19.67;;;13.90;99.90;;;;;;5095629;28;20062;-79
2023/06/18 03:39:58;;;;;;;36.22;21.52;;;13.80;99.90;;;;;;5094671;28;20395;-79
2023/06/18 03:42:24;;;;;;;33.03;21.05;;;13.90;99.90;;;;;;5094761;28;20036;-79
2023/06/18 03:44:50;;;;;;;38.85;21.75;;;13.90;99.90;;;;;;5094316;28;20044;-79
2023/06/18 03:47:17;;;;;;;36.53;21.42;;;13.90;99.90;;;;;;5094399;28;20040;-79
2023/06/18 03:49:42;;;;;;;41.90;23.65;;;13.90;99.90;;;;;;5094158;28;20396;-79
2023/06/18 03:52:08;;;;;;;41.95;24.33;;;13.90;99.90;;;;;;5095591;28;20502;-79
2023/06/18 03:54:35;;;;;;;41.60;23.80;;;13.90;99.90;;;;;;5094400;28;20044;-79
2023/06/18 03:57:01;;;;;;;42.22;23.58;;;13.90;99.90;;;;;;5095639;28;20040;-79
2023/06/18 03:59:28;;;;;;;37.63;21.23;;;14.00;99.90;;;;;;5095386;28;20044;-79
2023/06/18 04:01:54;;;;;;;36.90;21.48;;;14.00;99.90;;;;;;5093947;28;20384;-79
2023/06/18 04:04:20;;;;;;;32.53;19.40;;;14.00;99.90;;;;;;5093917;28;20464;-79
2023/06/18 04:06:46;;;;;;;32.53;19.85;;;14.00;99.90;;;;;;5095347;28;20519;-79
2023/06/18 04:09:11;;;;;;;31.77;18.85;;;14.00;99.90;;;;;;5094032;28;20044;-79
2023/06/18 04:11:45;;;;;;;32.83;21.35;;;14.00;99.90;;;;;;5095263;28;20048;-79
2023/06/18 04:14:10;;;;;;;31.52;19.83;;;14.00;99.90;;;;;;5094049;28;20040;-79
2023/06/18 04:16:36;;;;;;;31.33;19.10;;;14.00;99.90;;;;;;5095048;28;20479;-79
2023/06/18 04:19:02;;;;;;;30.90;19.35;;;14.00;99.90;;;;;;5093607;28;20048;-79
2023/06/18 04:21:27;;;;;;;31.67;20.00;;;14.00;99.90;;;;;;5093784;28;20135;-79
2023/06/18 04:23:54;;;;;;;29.90;19.27;;;14.00;99.90;;;;;;5093348;28;20080;-79
2023/06/18 04:26:21;;;;;;;30.65;19.45;;;14.00;99.90;;;;;;5094829;28;20044;-79
2023/06/18 04:28:47;;;;;;;29.38;19.30;;;14.10;99.90;;;;;;5093612;28;20500;-79
2023/06/18 04:31:12;;;;;;;30.40;19.17;;;14.10;99.90;;;;;;5094785;28;20123;-79
2023/06/18 04:33:38;;;;;;;30.05;19.67;;;14.20;99.90;;;;;;5093307;28;20043;-79
2023/06/18 04:36:04;;;;;;;29.63;18.85;;;14.30;99.90;;;;;;5093360;28;20070;-78
2023/06/18 04:38:30;;;;;;;30.83;19.55;;;14.20;99.90;;;;;;5093608;28;20075;-79
2023/06/18 04:40:56;;;;;;;31.45;20.63;;;14.20;99.90;;;;;;5094490;28;20072;-79
2023/06/18 04:43:21;;;;;;;30.80;19.65;;;14.20;99.90;;;;;;5094768;28;20048;-78
2023/06/18 04:45:47;;;;;;;32.33;20.13;;;14.30;99.90;;;;;;5093405;28;20033;-78
2023/06/18 04:48:14;;;;;;;32.65;20.00;;;14.40;99.90;;;;;;5093256;28;20133;-79
2023/06/18 04:50:40;;;;;;;28.95;18.73;;;14.40;99.90;;;;;;5093299;28;20109;-79
2023/06/18 04:53:06;;;;;;;32.05;20.75;;;14.50;99.90;;;;;;5093166;28;20079;-79
2023/06/18 04:55:31;;;;;;;35.20;20.23;;;14.50;99.90;;;;;;5094502;28;20082;-79
2023/06/18 04:57:58;;;;;;;43.00;19.50;;;14.50;99.90;;;;;;5094536;28;20140;-79
2023/06/18 05:00:24;;;;;;;46.35;21.27;;;14.40;99.90;;;;;;5094308;28;20494;-79
2023/06/18 05:02:49;;;;;;;43.17;22.13;;;14.50;99.90;;;;;;5093052;28;20052;-79
2023/06/18 05:05:15;;;;;;;36.40;21.13;;;14.50;99.90;;;;;;5092847;28;20392;-79
2023/06/18 05:07:42;;;;;;;37.28;21.40;;;14.60;99.90;;;;;;5092850;28;20040;-79
2023/06/18 05:10:08;;;;;;;57.58;21.40;;;14.60;99.90;;;;;;5092755;28;20055;-79
2023/06/18 05:12:34;;;;;;;58.97;21.58;;;14.70;99.90;;;;;;5075778;28;20147;-79
2023/06/18 05:15:00;;;;;;;46.42;21.65;;;14.60;99.90;;;;;;5092697;28;20044;-79
2023/06/18 05:17:26;;;;;;;44.38;22.92;;;14.70;99.90;;;;;;5092575;28;20108;-79
2023/06/18 05:19:51;;;;;;;38.70;21.88;;;14.70;99.90;;;;;;5092940;28;20548;-79
2023/06/18 05:22:17;;;;;;;52.38;23.42;;;14.70;99.90;;;;;;5092547;28;20395;-79
2023/06/18 05:24:44;;;;;;;40.83;22.80;;;14.70;99.90;;;;;;5092383;28;20066;-79
2023/06/18 05:27:10;;;;;;;45.78;24.05;;;14.80;99.90;;;;;;5092417;28;20048;-79
2023/06/18 05:29:36;;;;;;;41.83;24.02;;;14.80;99.90;;;;;;5092601;28;20051;-79
2023/06/18 05:32:02;;;;;;;42.58;24.23;;;14.90;99.90;;;;;;5092560;28;20074;-79
2023/06/18 05:34:28;;;;;;;39.33;23.55;;;14.90;99.90;;;;;;5093944;28;20040;-80
2023/06/18 05:36:53;;;;;;;40.78;23.55;;;15.00;99.90;;;;;;5092610;28;20437;-79
2023/06/18 05:39:19;;;;;;;39.40;23.15;;;15.00;99.90;;;;;;5093687;28;20433;-79
2023/06/18 05:41:45;;;;;;;39.30;23.77;;;15.00;99.90;;;;;;5092724;28;20044;-79
2023/06/18 05:44:10;;;;;;;38.65;24.15;;;15.10;99.90;;;;;;5093801;28;20368;-79
2023/06/18 05:46:36;;;;;;;45.72;24.83;;;15.10;99.90;;;;;;5091847;28;20054;-79
2023/06/18 05:49:02;;;;;;;47.80;26.17;;;15.20;99.90;;;;;;5092263;28;20044;-79
2023/06/18 05:51:27;;;;;;;49.40;26.05;;;15.20;99.90;;;;;;5092071;28;20054;-79
2023/06/18 05:53:53;;;;;;;50.53;26.80;;;15.30;99.90;;;;;;5092271;28;20126;-79
2023/06/18 05:56:18;;;;;;;55.03;27.10;;;15.40;99.90;;;;;;5092123;28;20101;-79
2023/06/18 05:58:45;;;;;;;42.03;24.17;;;15.50;99.90;;;;;;5092208;28;20098;-79
2023/06/18 06:01:10;;;;;;;39.83;24.85;;;15.50;99.90;;;;;;5092426;28;20048;-79
2023/06/18 06:03:36;;;;;;;43.45;25.05;;;15.80;99.90;;;;;;5092020;28;20407;-79
2023/06/18 06:06:03;;;;;;;39.60;24.30;;;15.90;99.90;;;;;;5093275;28;20094;-79
2023/06/18 06:08:28;;;;;;;44.80;26.02;;;16.10;99.90;;;;;;5092449;28;20044;-79
2023/06/18 06:10:54;;;;;;;44.47;25.05;;;16.20;99.90;;;;;;5091891;28;20395;-79
2023/06/18 06:13:20;;;;;;;43.60;25.45;;;16.30;99.90;;;;;;5092026;28;20104;-78
2023/06/18 06:15:45;;;;;;;41.25;25.30;;;16.40;99.90;;;;;;5086244;28;20098;-77
2023/06/18 06:18:11;;;;;;;41.42;25.50;;;16.50;99.90;;;;;;5079827;28;20047;-77
2023/06/18 06:20:37;;;;;;;38.70;25.80;;;16.70;99.90;;;;;;5071678;28;20040;-78
2023/06/18 06:23:03;;;;;;;43.05;25.77;;;16.90;99.90;;;;;;5071312;28;20049;-77
2023/06/18 06:25:28;;;;;;;40.53;25.65;;;17.10;99.90;;;;;;5072943;28;20052;-76
2023/06/18 06:27:54;;;;;;;37.92;22.50;;;17.20;99.90;;;;;;5072950;28;20052;-78
2023/06/18 06:30:20;;;;;;;37.25;23.70;;;17.50;99.90;;;;;;5072648;28;20032;-77
2023/06/18 06:32:45;;;;;;;42.22;26.13;;;17.80;99.90;;;;;;5071343;28;20395;-80
2023/06/18 06:35:11;;;;;;;39.78;23.95;;;18.00;99.90;;;;;;5071810;28;20048;-79
2023/06/18 06:37:37;;;;;;;37.80;22.98;;;18.10;99.90;;;;;;5071615;28;20048;-79
2023/06/18 06:40:03;;;;;;;36.42;23.48;;;18.10;99.90;;;;;;5071379;28;20116;-79
2023/06/18 06:42:30;;;;;;;33.72;21.38;;;18.30;99.90;;;;;;5071554;28;20056;-79
2023/06/18 06:44:56;;;;;;;35.03;22.23;;;18.30;99.90;;;;;;5071257;28;20048;-79
2023/06/18 06:47:22;;;;;;;37.35;23.98;;;18.40;99.90;;;;;;5072519;28;20043;-79
2023/06/18 06:49:47;;;;;;;36.90;24.08;;;18.60;99.90;;;;;;5071601;28;20040;-79
2023/06/18 06:52:13;;;;;;;34.45;22.77;;;18.80;99.90;;;;;;5071193;28;20140;-79
2023/06/18 06:54:39;;;;;;;33.63;22.88;;;19.00;99.90;;;;;;5071440;28;20055;-79
2023/06/18 06:57:05;;;;;;;33.72;22.23;;;19.10;99.90;;;;;;5072439;28;20442;-79
2023/06/18 06:59:30;;;;;;;32.67;22.60;;;19.30;99.90;;;;;;5074748;28;20478;-79
2023/06/18 07:01:56;;;;;;;32.17;22.65;;;19.60;99.90;;;;;;5074747;28;20098;-79
2023/06/18 07:04:22;;;;;;;31.65;22.45;;;19.90;99.90;;;;;;5075934;28;20041;-80
2023/06/18 07:06:49;;;;;;;29.70;21.13;;;20.00;99.90;;;;;;5075945;28;20048;-78
2023/06/18 07:09:14;;;;;;;31.23;20.75;;;20.20;99.90;;;;;;5074860;28;20040;-79
2023/06/18 07:11:40;;;;;;;28.33;19.92;;;20.30;99.90;;;;;;5074656;28;20517;-80
2023/06/18 07:14:06;;;;;;;27.65;20.15;;;20.50;99.90;;;;;;5074697;28;20496;-80
2023/06/18 07:16:33;;;;;;;29.02;19.63;;;20.70;99.90;;;;;;5076002;28;20101;-80
2023/06/18 07:18:58;;;;;;;28.48;19.15;;;20.80;99.90;;;;;;5074406;28;20492;-79
2023/06/18 07:21:24;;;;;;;30.98;19.10;;;21.00;99.90;;;;;;5075705;28;20051;-79
2023/06/18 07:23:50;;;;;;;27.60;18.75;;;20.90;99.90;;;;;;5074213;28;20408;-80
2023/06/18 07:26:17;;;;;;;28.65;20.27;;;20.90;99.90;;;;;;5074333;28;20057;-78
2023/06/18 07:28:43;;;;;;;26.92;19.77;;;20.90;99.90;;;;;;5074645;28;20048;-79
2023/06/18 07:31:09;;;;;;;26.13;19.63;;;20.90;99.90;;;;;;5074101;28;20044;-79
2023/06/18 07:33:34;;;;;;;27.30;19.90;;;20.80;99.90;;;;;;5074177;28;20044;-80
2023/06/18 07:36:00;;;;;;;31.85;20.65;;;20.80;99.90;;;;;;5074733;28;20105;-80
2023/06/18 07:38:26;;;;;;;26.85;19.98;;;20.80;99.90;;;;;;5074242;28;20063;-79
2023/06/18 07:40:51;;;;;;;29.08;19.23;;;20.90;99.90;;;;;;5074111;28;20131;-80
2023/06/18 07:43:17;;;;;;;25.77;18.38;;;20.90;99.90;;;;;;5073947;28;20087;-81
2023/06/18 07:45:43;;;;;;;25.02;17.88;;;20.90;99.90;;;;;;5073871;28;20044;-78
2023/06/18 07:48:09;;;;;;;28.27;19.02;;;20.90;99.90;;;;;;5074172;28;20049;-81
2023/06/18 07:50:35;;;;;;;24.85;18.70;;;20.90;99.90;;;;;;5073791;28;20067;-80
2023/06/18 07:53:00;;;;;;;27.63;19.23;;;21.00;99.90;;;;;;5073679;28;20094;-80
2023/06/18 07:55:26;;;;;;;25.27;17.35;;;21.00;99.90;;;;;;5074929;28;20036;-80
2023/06/18 07:57:52;;;;;;;25.40;18.45;;;21.00;99.90;;;;;;5074878;28;20048;-80
2023/06/18 08:00:18;;;;;;;24.20;17.65;;;20.90;99.90;;;;;;5074874;28;20471;-80
2023/06/18 08:02:44;;;;;;;23.27;17.75;;;21.00;99.90;;;;;;5073624;28;20056;-79
2023/06/18 08:05:10;;;;;;;25.13;18.85;;;21.00;99.90;;;;;;5074698;28;20408;-79
2023/06/18 08:07:36;;;;;;;24.40;17.33;;;21.10;99.90;;;;;;5073499;28;20044;-79
2023/06/18 08:10:02;;;;;;;24.73;17.67;;;21.20;99.90;;;;;;5072821;28;20051;-79
2023/06/18 08:12:27;;;;;;;24.55;20.05;;;21.30;99.90;;;;;;5073281;28;20044;-79
2023/06/18 08:14:53;;;;;;;26.83;20.35;;;21.30;99.90;;;;;;5073195;28;20127;-79
2023/06/18 08:17:19;;;;;;;27.42;20.08;;;21.40;99.90;;;;;;5073381;28;20044;-80
2023/06/18 08:19:46;;;;;;;27.75;20.77;;;21.50;99.90;;;;;;5073185;28;20131;-80
2023/06/18 08:22:12;;;;;;;25.77;20.40;;;21.50;99.90;;;;;;5074625;28;20036;-79
2023/06/18 08:24:38;;;;;;;26.88;19.83;;;21.80;99.90;;;;;;5073060;28;20052;-81
2023/06/18 08:27:04;;;;;;;28.90;20.88;;;22.10;99.90;;;;;;5072925;28;20060;-80
2023/06/18 08:29:30;;;;;;;25.65;19.58;;;22.40;99.90;;;;;;5073116;28;20080;-79
2023/06/18 08:32:00;;;;;;;27.88;22.88;;;22.50;99.90;;;;;;5073028;28;20052;-78
2023/06/18 08:34:26;;;;;;;24.60;19.48;;;22.30;99.90;;;;;;5073153;28;20044;-79
2023/06/18 08:36:51;;;;;;;26.73;19.55;;;22.50;99.90;;;;;;5074160;28;20396;-79
2023/06/18 08:39:17;;;;;;;22.45;17.58;;;22.50;99.90;;;;;;5072854;28;20041;-80
2023/06/18 08:41:45;;;;;;;25.70;15.48;;;22.60;99.90;;;;;;5072913;28;20079;-79
2023/06/18 08:44:11;;;;;;;19.60;14.60;;;22.70;99.90;;;;;;5072754;28;20048;-79
2023/06/18 08:46:38;;;;;;;19.05;13.75;;;23.10;99.90;;;;;;5072959;28;20040;-80
2023/06/18 08:49:06;;;;;;;16.58;13.73;;;23.40;99.90;;;;;;5072661;28;20101;-80
2023/06/18 08:51:34;;;;;;;18.88;13.55;;;23.70;99.90;;;;;;5072549;28;20049;-80
2023/06/18 08:54:19;;;;;;;19.17;13.55;;;23.80;99.90;;;;;;5073872;28;20044;-79
2023/06/18 08:56:53;;;;;;;17.60;14.60;;;23.80;99.90;;;;;;5074006;28;20086;-79
2023/06/18 08:59:20;;;;;;;18.45;14.77;;;23.60;99.90;;;;;;5072578;28;20490;-79
2023/06/18 09:01:47;;;;;;;17.35;13.90;;;23.30;99.90;;;;;;5072472;28;20091;-79
2023/06/18 09:04:14;;;;;;;26.20;19.13;;;23.40;99.90;;;;;;5072481;28;20044;-78
2023/06/18 09:06:42;;;;;;;22.30;18.42;;;23.40;99.90;;;;;;5072310;28;20054;-78
2023/06/18 09:09:07;;;;;;;23.58;18.52;;;23.40;99.90;;;;;;5073833;28;20040;-78
2023/06/18 09:11:33;;;;;;;24.48;18.77;;;23.40;99.90;;;;;;5073408;28;20048;-79
2023/06/18 09:13:59;;;;;;;22.27;18.65;;;23.60;99.90;;;;;;5073596;28;20185;-80
2023/06/18 09:16:25;;;;;;;20.70;17.38;;;23.70;99.90;;;;;;5072481;28;20132;-79
2023/06/18 09:18:52;;;;;;;19.33;17.23;;;24.00;99.90;;;;;;5072480;28;20102;-79
2023/06/18 09:21:38;;;;;;;19.90;16.23;;;23.90;99.90;;;;;;5072482;28;20044;-79
2023/06/18 09:24:22;;;;;;;17.70;15.05;;;23.90;99.90;;;;;;5072054;28;20056;-79
2023/06/18 09:27:03;;;;;;;22.77;17.58;;;24.10;99.90;;;;;;5076607;28;20050;-79
2023/06/18 09:29:29;;;;;;;21.00;18.45;;;24.30;99.90;;;;;;5090362;28;20118;-78
2023/06/18 09:31:55;;;;;;;24.00;17.58;;;24.20;99.90;;;;;;5092137;28;20124;-78
2023/06/18 09:34:21;;;;;;;18.15;13.65;;;24.20;99.90;;;;;;5093761;28;20134;-77
2023/06/18 09:36:50;;;;;;;19.00;15.50;;;24.50;99.90;;;;;;5091980;28;20036;-78
2023/06/18 09:39:15;;;;;;;19.33;17.27;;;24.60;99.90;;;;;;5093330;28;20059;-78
2023/06/18 09:41:43;;;;;;;17.17;14.98;;;24.70;99.90;;;;;;5092333;28;20040;-78
2023/06/18 09:44:09;;;;;;;20.15;17.80;;;24.80;99.90;;;;;;5092283;28;20059;-78
2023/06/18 09:46:35;;;;;;;18.65;15.63;;;25.00;99.90;;;;;;5092083;28;20044;-78
2023/06/18 09:49:01;;;;;;;21.42;16.75;;;25.10;99.90;;;;;;5092073;28;20051;-78
2023/06/18 09:51:26;;;;;;;18.63;16.02;;;25.40;99.90;;;;;;5093111;28;20040;-79
2023/06/18 09:53:57;;;;;;;20.60;16.65;;;25.50;99.90;;;;;;5092269;28;20155;-79
2023/06/18 09:56:23;;;;;;;21.42;17.10;;;25.70;99.90;;;;;;5093203;28;20438;-78
2023/06/18 09:58:50;;;;;;;23.13;18.50;;;25.10;99.90;;;;;;5091794;28;20040;-78
2023/06/18 10:01:17;;;;;;;19.27;16.25;;;25.30;99.90;;;;;;5091921;28;20036;-81
2023/06/18 10:03:44;;;;;;;22.48;17.20;;;25.30;99.90;;;;;;5091824;28;20376;-79
2023/06/18 10:06:17;;;;;;;19.17;16.95;;;25.20;99.90;;;;;;5092153;28;20052;-80
2023/06/18 10:08:47;;;;;;;19.20;15.13;;;25.10;99.90;;;;;;5091780;28;20122;-80
2023/06/18 10:11:15;;;;;;;20.98;16.27;;;25.30;99.90;;;;;;5091683;28;20128;-80
2023/06/18 10:13:58;;;;;;;18.13;15.77;;;25.30;99.90;;;;;;5091756;28;20418;-79
2023/06/18 10:16:29;;;;;;;20.23;15.27;;;25.40;99.90;;;;;;5093101;28;20453;-78
2023/06/18 10:19:13;;;;;;;14.45;12.40;;;25.40;99.90;;;;;;5093090;28;20052;-78
2023/06/18 10:21:50;;;;;;;16.00;13.55;;;25.30;99.90;;;;;;5093035;28;20123;-78
2023/06/18 10:24:19;;;;;;;19.83;15.73;;;25.30;99.90;;;;;;5091558;28;20411;-77
2023/06/18 10:26:46;;;;;;;16.88;13.52;;;25.40;99.90;;;;;;5093127;28;20044;-78
2023/06/18 10:29:12;;;;;;;16.45;14.27;;;25.60;99.90;;;;;;5091661;28;20044;-78
2023/06/18 10:31:38;;;;;;;20.25;15.02;;;25.80;99.90;;;;;;5091617;28;20048;-78
2023/06/18 10:34:05;;;;;;;17.15;13.77;;;25.40;99.90;;;;;;5095078;28;20059;-79
2023/06/18 10:36:31;;;;;;;18.48;13.50;;;25.30;99.90;;;;;;5095600;28;20044;-78
2023/06/18 10:38:58;;;;;;;17.67;14.98;;;25.70;99.90;;;;;;5096975;28;20036;-76
2023/06/18 10:41:24;;;;;;;18.08;14.20;;;25.40;99.90;;;;;;5095453;28;20058;-78
2023/06/18 10:43:51;;;;;;;17.38;14.57;;;25.70;99.90;;;;;;5095688;28;20052;-78
2023/06/18 10:46:18;;;;;;;17.33;13.50;;;25.60;99.90;;;;;;5096568;28;20070;-79
2023/06/18 10:49:16;;;;;;;15.70;13.93;;;25.50;99.90;;;;;;5085948;28;20048;-78
2023/06/18 10:51:51;;;;;;;15.10;13.43;;;25.50;99.90;;;;;;5089281;28;20047;-79
2023/06/18 10:54:22;;;;;;;15.95;14.27;;;25.80;99.90;;;;;;5095243;28;20052;-79
2023/06/18 10:56:53;;;;;;;18.30;14.75;;;25.90;99.90;;;;;;5096632;28;20034;-79
2023/06/18 10:59:43;;;;;;;15.55;11.88;;;26.00;99.90;;;;;;5096597;28;20101;-79
2023/06/18 11:02:10;;;;;;;16.00;13.68;;;26.20;99.90;;;;;;5129460;27;20052;-80
2023/06/18 11:04:37;;;;;;;17.15;14.30;;;25.90;99.90;;;;;;5094863;28;20407;-80
2023/06/18 11:07:19;;;;;;;16.10;13.80;;;25.70;99.90;;;;;;5095120;28;20048;-79
2023/06/18 11:09:51;;;;;;;17.13;15.32;;;25.40;99.90;;;;;;5094869;28;20535;-79
2023/06/18 11:12:21;;;;;;;19.90;13.95;;;25.10;99.90;;;;;;5094901;28;20381;-79
2023/06/18 11:15:16;;;;;;;15.35;13.80;;;25.10;99.90;;;;;;5094801;28;20040;-79
2023/06/18 11:18:03;;;;;;;16.85;14.40;;;25.00;99.90;;;;;;5094715;28;20385;-79
2023/06/18 11:20:35;;;;;;;16.83;14.38;;;24.80;99.90;;;;;;5095406;28;20387;-79
2023/06/18 11:23:04;;;;;;;18.15;14.07;;;24.80;99.90;;;;;;5094705;28;20047;-78
2023/06/18 11:25:30;;;;;;;15.55;13.63;;;24.80;99.90;;;;;;5096013;28;20059;-79
2023/06/18 11:28:02;;;;;;;20.75;14.77;;;24.80;99.90;;;;;;5095726;28;20044;-78
2023/06/18 11:30:31;;;;;;;18.02;14.38;;;24.90;99.90;;;;;;5094554;28;20051;-79
2023/06/18 11:32:58;;;;;;;17.80;13.77;;;24.80;99.90;;;;;;5095563;28;20047;-79
2023/06/18 11:35:24;;;;;;;18.27;13.38;;;24.90;99.90;;;;;;5094689;28;20145;-79
2023/06/18 11:37:53;;;;;;;17.50;13.93;;;24.80;99.90;;;;;;5094339;28;20513;-79
2023/06/18 11:40:20;;;;;;;20.83;13.70;;;24.90;99.90;;;;;;5094605;28;20055;-79
2023/06/18 11:42:51;;;;;;;15.82;13.95;;;24.90;99.90;;;;;;5095316;28;20441;-80
2023/06/18 11:45:17;;;;;;;20.27;16.05;;;24.80;99.90;;;;;;5094709;28;20043;-76
2023/06/18 11:47:48;;;;;;;17.63;14.52;;;24.30;99.90;;;;;;5094130;28;20056;-75
2023/06/18 11:50:19;;;;;;;18.40;15.48;;;24.20;99.90;;;;;;5094133;28;20434;-77
2023/06/18 11:52:45;;;;;;;18.75;15.10;;;24.50;99.90;;;;;;5094104;28;20123;-78
2023/06/18 11:55:11;;;;;;;18.67;14.80;;;24.50;99.90;;;;;;5094228;28;20119;-77
2023/06/18 11:57:37;;;;;;;18.38;14.75;;;24.20;99.90;;;;;;5093833;28;20044;-76
2023/06/18 12:00:11;;;;;;;17.48;13.73;;;24.00;99.90;;;;;;5095442;28;20044;-78
2023/06/18 12:02:40;;;;;;;16.58;13.20;;;24.30;99.90;;;;;;5093879;28;20044;-77
2023/06/18 12:05:07;;;;;;;19.08;13.75;;;24.30;99.90;;;;;;5127993;27;20395;-78
2023/06/18 12:07:34;;;;;;;15.80;11.70;;;24.40;99.90;;;;;;5093881;28;20479;-78
2023/06/18 12:10:07;;;;;;;17.13;12.60;;;24.60;99.90;;;;;;5094983;28;20040;-78
2023/06/18 12:12:51;;;;;;;15.77;12.70;;;24.80;99.90;;;;;;5095180;28;20047;-77
2023/06/18 12:15:34;;;;;;;16.80;12.82;;;24.60;99.90;;;;;;5093935;28;20040;-78
2023/06/18 12:18:08;;;;;;;20.10;13.82;;;24.70;99.90;;;;;;5095009;28;20554;-78
2023/06/18 12:20:35;;;;;;;20.08;14.10;;;24.80;99.90;;;;;;5127676;27;20051;-78
2023/06/18 12:23:05;;;;;;;15.70;11.98;;;24.30;99.90;;;;;;5094665;28;20560;-77
2023/06/18 12:25:31;;;;;;;15.55;13.13;;;24.60;99.90;;;;;;5095005;28;20051;-78
2023/06/18 12:28:02;;;;;;;15.38;12.80;;;24.70;99.90;;;;;;5093452;28;20407;-78
2023/06/18 12:30:30;;;;;;;19.58;14.15;;;24.80;99.90;;;;;;5093418;28;20081;-78
2023/06/18 12:33:04;;;;;;;18.75;13.52;;;24.60;99.90;;;;;;5075366;28;20048;-78